sensor_id;sensor_type;location;lat;lon;timestamp;pressure;altitude;pressure_sealevel;temperature;humidity
67818;BME280;54614;47.576;7.524;2023-03-05T00:01:23;98876.03;;;23.03;31.37
67818;BME280;54614;47.576;7.524;2023-03-05T00:03:51;98881.59;;;23.02;31.41
67818;BME280;54614;47.576;7.524;2023-03-05T00:06:23;98878.06;;;23.01;31.32
67818;BME280;54614;47.576;7.524;2023-03-05T00:08:49;98878.06;;;23.01;31.33
67818;BME280;54614;47.576;7.524;2023-03-05T00:11:16;98880.75;;;23.01;31.20
67818;BME280;54614;47.576;7.524;2023-03-05T00:13:42;98876.22;;;23.02;31.25
67818;BME280;54614;47.576;7.524;2023-03-05T00:16:13;98875.59;;;23.00;31.24
67818;BME280;54614;47.576;7.524;2023-03-05T00:18:39;98882.63;;;23.01;31.26
67818;BME280;54614;47.576;7.524;2023-03-05T00:21:23;98875.59;;;23.00;31.46
67818;BME280;54614;47.576;7.524;2023-03-05T00:23:50;98877.63;;;22.98;31.37
67818;BME280;54614;47.576;7.524;2023-03-05T00:26:22;98874.31;;;22.96;31.25
67818;BME280;54614;47.576;7.524;2023-03-05T00:28:48;98869.97;;;22.95;31.35
67818;BME280;54614;47.576;7.524;2023-03-05T00:31:19;98870.81;;;22.95;31.26
67818;BME280;54614;47.576;7.524;2023-03-05T00:33:50;98872.66;;;22.95;31.26
67818;BME280;54614;47.576;7.524;2023-03-05T00:36:16;98869.97;;;22.95;31.17
67818;BME280;54614;47.576;7.524;2023-03-05T00:38:42;98869.16;;;22.94;31.19
67818;BME280;54614;47.576;7.524;2023-03-05T00:41:07;98872.66;;;22.95;31.07
67818;BME280;54614;47.576;7.524;2023-03-05T00:43:33;98869.16;;;22.94;30.98
67818;BME280;54614;47.576;7.524;2023-03-05T00:45:59;98861.50;;;22.91;31.38
67818;BME280;54614;47.576;7.524;2023-03-05T00:48:25;98861.50;;;22.91;30.95
67818;BME280;54614;47.576;7.524;2023-03-05T00:50:51;98857.16;;;22.90;30.94
67818;BME280;54614;47.576;7.524;2023-03-05T00:53:17;98854.47;;;22.90;31.21
67818;BME280;54614;47.576;7.524;2023-03-05T00:55:43;98848.28;;;22.90;31.02
67818;BME280;54614;47.576;7.524;2023-03-05T00:58:09;98845.59;;;22.90;31.03
67818;BME280;54614;47.576;7.524;2023-03-05T01:00:35;98847.44;;;22.89;31.09
67818;BME280;54614;47.576;7.524;2023-03-05T01:03:02;98850.13;;;22.89;31.04
67818;BME280;54614;47.576;7.524;2023-03-05T01:05:28;98841.44;;;22.87;30.91
67818;BME280;54614;47.576;7.524;2023-03-05T01:07:56;98835.25;;;22.87;30.98
67818;BME280;54614;47.576;7.524;2023-03-05T01:10:23;98827.22;;;22.87;31.38
67818;BME280;54614;47.576;7.524;2023-03-05T01:12:52;98819.16;;;22.87;31.14
67818;BME280;54614;47.576;7.524;2023-03-05T01:15:18;98823.50;;;22.88;31.11
67818;BME280;54614;47.576;7.524;2023-03-05T01:17:44;98817.50;;;22.86;30.99
67818;BME280;54614;47.576;7.524;2023-03-05T01:20:16;98821.22;;;22.85;31.13
67818;BME280;54614;47.576;7.524;2023-03-05T01:22:43;98820.38;;;22.84;30.98
67818;BME280;54614;47.576;7.524;2023-03-05T01:25:10;98817.69;;;22.84;31.30
67818;BME280;54614;47.576;7.524;2023-03-05T01:27:36;98801.59;;;22.84;30.97
67818;BME280;54614;47.576;7.524;2023-03-05T01:30:04;98815.00;;;22.84;30.91
67818;BME280;54614;47.576;7.524;2023-03-05T01:32:30;98807.16;;;22.82;31.08
67818;BME280;54614;47.576;7.524;2023-03-05T01:34:56;98798.09;;;22.83;30.83
67818;BME280;54614;47.576;7.524;2023-03-05T01:37:21;98797.66;;;22.80;31.11
67818;BME280;54614;47.576;7.524;2023-03-05T01:39:47;98797.47;;;22.81;31.13
67818;BME280;54614;47.576;7.524;2023-03-05T01:42:13;98795.81;;;22.80;31.00
67818;BME280;54614;47.576;7.524;2023-03-05T01:44:57;98796.63;;;22.81;31.16
67818;BME280;54614;47.576;7.524;2023-03-05T01:47:23;98790.59;;;22.79;31.04
67818;BME280;54614;47.576;7.524;2023-03-05T01:49:49;98793.28;;;22.79;30.94
67818;BME280;54614;47.576;7.524;2023-03-05T01:52:21;98792.28;;;22.80;30.94
67818;BME280;54614;47.576;7.524;2023-03-05T01:54:53;98786.25;;;22.78;31.08
67818;BME280;54614;47.576;7.524;2023-03-05T02:00:14;98782.94;;;22.76;31.03
67818;BME280;54614;47.576;7.524;2023-03-05T02:02:44;98778.59;;;22.75;31.22
67818;BME280;54614;47.576;7.524;2023-03-05T02:05:19;98777.56;;;22.76;30.95
67818;BME280;54614;47.576;7.524;2023-03-05T02:07:55;98778.59;;;22.75;31.11
67818;BME280;54614;47.576;7.524;2023-03-05T02:10:32;98770.56;;;22.75;31.15
67818;BME280;54614;47.576;7.524;2023-03-05T02:13:02;98767.25;;;22.73;30.82
67818;BME280;54614;47.576;7.524;2023-03-05T02:15:31;98770.75;;;22.73;31.08
67818;BME280;54614;47.576;7.524;2023-03-05T02:17:57;98773.44;;;22.73;31.18
67818;BME280;54614;47.576;7.524;2023-03-05T02:20:27;98766.41;;;22.72;30.94
67818;BME280;54614;47.576;7.524;2023-03-05T02:22:53;98765.59;;;22.72;30.86
67818;BME280;54614;47.576;7.524;2023-03-05T02:25:24;98768.25;;;22.72;30.88
67818;BME280;54614;47.576;7.524;2023-03-05T02:30:38;98764.94;;;22.70;31.13
67818;BME280;54614;47.576;7.524;2023-03-05T02:33:04;98759.78;;;22.68;30.98
67818;BME280;54614;47.576;7.524;2023-03-05T02:35:30;98762.28;;;22.70;30.96
67818;BME280;54614;47.576;7.524;2023-03-05T02:37:56;98755.25;;;22.69;30.91
67818;BME280;54614;47.576;7.524;2023-03-05T02:40:23;98763.09;;;22.70;30.93
67818;BME280;54614;47.576;7.524;2023-03-05T02:42:50;98759.97;;;22.67;31.09
67818;BME280;54614;47.576;7.524;2023-03-05T02:45:16;98759.16;;;22.66;30.82
67818;BME280;54614;47.576;7.524;2023-03-05T02:47:42;98756.47;;;22.66;30.87
67818;BME280;54614;47.576;7.524;2023-03-05T02:50:10;98751.31;;;22.65;30.86
67818;BME280;54614;47.576;7.524;2023-03-05T02:52:37;98750.47;;;22.64;30.91
67818;BME280;54614;47.576;7.524;2023-03-05T02:55:04;98750.28;;;22.66;30.96
67818;BME280;54614;47.576;7.524;2023-03-05T02:57:30;98748.63;;;22.65;31.18
67818;BME280;54614;47.576;7.524;2023-03-05T02:59:55;98748.81;;;22.63;30.83
67818;BME280;54614;47.576;7.524;2023-03-05T03:02:21;98742.63;;;22.63;31.10
67818;BME280;54614;47.576;7.524;2023-03-05T03:04:47;98742.81;;;22.61;31.20
67818;BME280;54614;47.576;7.524;2023-03-05T03:07:14;98739.94;;;22.63;30.99
67818;BME280;54614;47.576;7.524;2023-03-05T03:09:41;98735.41;;;22.63;30.80
67818;BME280;54614;47.576;7.524;2023-03-05T03:12:10;98739.13;;;22.62;31.10
67818;BME280;54614;47.576;7.524;2023-03-05T03:14:39;98732.72;;;22.63;31.02
67818;BME280;54614;47.576;7.524;2023-03-05T03:17:17;98729.41;;;22.61;30.96
67818;BME280;54614;47.576;7.524;2023-03-05T03:19:45;98725.06;;;22.60;31.14
67818;BME280;54614;47.576;7.524;2023-03-05T03:22:14;98724.25;;;22.60;30.92
67818;BME280;54614;47.576;7.524;2023-03-05T03:24:43;98719.91;;;22.59;30.97
67818;BME280;54614;47.576;7.524;2023-03-05T03:27:09;98722.41;;;22.60;30.73
67818;BME280;54614;47.576;7.524;2023-03-05T03:29:35;98718.06;;;22.59;31.04
67818;BME280;54614;47.576;7.524;2023-03-05T03:32:01;98714.53;;;22.59;30.76
67818;BME280;54614;47.576;7.524;2023-03-05T03:34:27;98719.28;;;22.57;30.83
67818;BME280;54614;47.576;7.524;2023-03-05T03:36:53;98712.88;;;22.58;31.33
67818;BME280;54614;47.576;7.524;2023-03-05T03:39:20;98710.22;;;22.58;31.13
67818;BME280;54614;47.576;7.524;2023-03-05T03:41:49;98717.63;;;22.56;31.01
67818;BME280;54614;47.576;7.524;2023-03-05T03:44:17;98721.13;;;22.56;30.85
67818;BME280;54614;47.576;7.524;2023-03-05T03:46:46;98709.56;;;22.56;30.97
67818;BME280;54614;47.576;7.524;2023-03-05T03:49:24;98711.44;;;22.55;30.81
67818;BME280;54614;47.576;7.524;2023-03-05T03:51:52;98703.56;;;22.54;30.93
67818;BME280;54614;47.576;7.524;2023-03-05T03:54:19;98701.09;;;22.52;30.99
67818;BME280;54614;47.576;7.524;2023-03-05T03:56:46;98703.56;;;22.54;30.81
67818;BME280;54614;47.576;7.524;2023-03-05T03:59:12;98697.59;;;22.51;31.10
67818;BME280;54614;47.576;7.524;2023-03-05T04:01:38;98700.25;;;22.51;31.00
67818;BME280;54614;47.576;7.524;2023-03-05T04:04:05;98685.22;;;22.50;30.86
67818;BME280;54614;47.576;7.524;2023-03-05T04:06:32;98682.72;;;22.49;30.90
67818;BME280;54614;47.576;7.524;2023-03-05T04:08:58;98685.22;;;22.50;31.06
67818;BME280;54614;47.576;7.524;2023-03-05T04:11:24;98689.75;;;22.50;30.99
67818;BME280;54614;47.576;7.524;2023-03-05T04:13:50;98680.03;;;22.49;30.89
67818;BME280;54614;47.576;7.524;2023-03-05T04:16:17;98685.59;;;22.47;31.05
67818;BME280;54614;47.576;7.524;2023-03-05T04:18:44;98679.03;;;22.50;30.88
67818;BME280;54614;47.576;7.524;2023-03-05T04:21:11;98673.03;;;22.48;30.80
67818;BME280;54614;47.576;7.524;2023-03-05T04:23:38;98681.25;;;22.46;31.04
67818;BME280;54614;47.576;7.524;2023-03-05T04:26:05;98680.44;;;22.46;31.14
67818;BME280;54614;47.576;7.524;2023-03-05T04:28:32;98676.91;;;22.45;30.88
67818;BME280;54614;47.576;7.524;2023-03-05T04:30:57;98674.25;;;22.45;30.86
67818;BME280;54614;47.576;7.524;2023-03-05T04:33:23;98679.59;;;22.45;31.09
67818;BME280;54614;47.576;7.524;2023-03-05T04:35:50;98678.78;;;22.45;31.03
67818;BME280;54614;47.576;7.524;2023-03-05T04:38:16;98682.28;;;22.45;31.00
67818;BME280;54614;47.576;7.524;2023-03-05T04:40:44;98682.47;;;22.44;30.97
67818;BME280;54614;47.576;7.524;2023-03-05T04:43:11;98679.81;;;22.44;30.82
67818;BME280;54614;47.576;7.524;2023-03-05T04:45:39;98680.81;;;22.43;30.79
67818;BME280;54614;47.576;7.524;2023-03-05T04:48:06;98677.31;;;22.42;31.00
67818;BME280;54614;47.576;7.524;2023-03-05T04:50:32;98681.84;;;22.42;31.07
67818;BME280;54614;47.576;7.524;2023-03-05T04:52:58;98676.50;;;22.42;30.94
67818;BME280;54614;47.576;7.524;2023-03-05T04:55:26;98671.31;;;22.40;30.96
67818;BME280;54614;47.576;7.524;2023-03-05T04:57:52;98668.00;;;22.38;30.82
67818;BME280;54614;47.576;7.524;2023-03-05T05:00:19;98662.44;;;22.40;30.94
67818;BME280;54614;47.576;7.524;2023-03-05T05:02:47;98665.72;;;22.35;30.84
67818;BME280;54614;47.576;7.524;2023-03-05T05:05:19;98659.13;;;22.38;30.78
67818;BME280;54614;47.576;7.524;2023-03-05T05:07:46;98657.69;;;22.35;30.72
67818;BME280;54614;47.576;7.524;2023-03-05T05:10:13;98662.84;;;22.37;30.61
67818;BME280;54614;47.576;7.524;2023-03-05T05:12:39;98652.13;;;22.37;30.61
67818;BME280;54614;47.576;7.524;2023-03-05T05:15:06;98655.81;;;22.36;30.44
67818;BME280;54614;47.576;7.524;2023-03-05T05:17:34;98650.47;;;22.36;30.43
67818;BME280;54614;47.576;7.524;2023-03-05T05:20:01;98645.94;;;22.36;30.21
67818;BME280;54614;47.576;7.524;2023-03-05T05:22:29;98649.00;;;22.33;30.39
67818;BME280;54614;47.576;7.524;2023-03-05T05:24:55;98649.84;;;22.34;30.37
67818;BME280;54614;47.576;7.524;2023-03-05T05:27:21;98649.00;;;22.33;30.56
67818;BME280;54614;47.576;7.524;2023-03-05T05:29:47;98647.97;;;22.34;30.63
67818;BME280;54614;47.576;7.524;2023-03-05T05:32:18;98650.03;;;22.32;30.44
67818;BME280;54614;47.576;7.524;2023-03-05T05:34:45;98654.38;;;22.33;30.64
67818;BME280;54614;47.576;7.524;2023-03-05T05:37:11;98654.38;;;22.33;30.75
67818;BME280;54614;47.576;7.524;2023-03-05T05:39:37;98655.19;;;22.34;30.63
67818;BME280;54614;47.576;7.524;2023-03-05T05:42:03;98655.38;;;22.32;30.45
67818;BME280;54614;47.576;7.524;2023-03-05T05:44:29;98649.19;;;22.32;30.46
67818;BME280;54614;47.576;7.524;2023-03-05T05:46:55;98651.06;;;22.31;30.54
67818;BME280;54614;47.576;7.524;2023-03-05T05:49:20;98651.88;;;22.32;30.69
67818;BME280;54614;47.576;7.524;2023-03-05T05:51:46;98650.41;;;22.29;30.67
67818;BME280;54614;47.576;7.524;2023-03-05T05:54:13;98644.44;;;22.27;30.50
67818;BME280;54614;47.576;7.524;2023-03-05T05:56:40;98645.25;;;22.28;30.75
67818;BME280;54614;47.576;7.524;2023-03-05T05:59:07;98640.91;;;22.27;30.78
67818;BME280;54614;47.576;7.524;2023-03-05T06:01:34;98637.41;;;22.26;30.71
67818;BME280;54614;47.576;7.524;2023-03-05T06:04:01;98643.41;;;22.28;30.73
67818;BME280;54614;47.576;7.524;2023-03-05T06:06:28;98637.84;;;22.30;30.43
67818;BME280;54614;47.576;7.524;2023-03-05T06:08:54;98627.53;;;22.27;30.90
67818;BME280;54614;47.576;7.524;2023-03-05T06:11:20;98633.06;;;22.25;30.88
67818;BME280;54614;47.576;7.524;2023-03-05T06:13:47;98629.38;;;22.26;30.76
67818;BME280;54614;47.576;7.524;2023-03-05T06:16:19;98628.75;;;22.24;30.71
67818;BME280;54614;47.576;7.524;2023-03-05T06:18:46;98619.03;;;22.23;30.82
67818;BME280;54614;47.576;7.524;2023-03-05T06:21:16;98624.41;;;22.23;30.78
67818;BME280;54614;47.576;7.524;2023-03-05T06:23:43;98621.72;;;22.23;30.87
67818;BME280;54614;47.576;7.524;2023-03-05T06:26:13;98624.41;;;22.23;30.83
67818;BME280;54614;47.576;7.524;2023-03-05T06:28:39;98614.91;;;22.21;30.76
67818;BME280;54614;47.576;7.524;2023-03-05T06:31:10;98614.91;;;22.21;30.67
67818;BME280;54614;47.576;7.524;2023-03-05T06:33:36;98616.75;;;22.20;30.80
67818;BME280;54614;47.576;7.524;2023-03-05T06:36:05;98619.44;;;22.20;30.85
67818;BME280;54614;47.576;7.524;2023-03-05T06:38:32;98621.09;;;22.21;30.64
67818;BME280;54614;47.576;7.524;2023-03-05T06:41:04;98625.63;;;22.21;30.73
67818;BME280;54614;47.576;7.524;2023-03-05T06:43:32;98629.13;;;22.21;31.05
67818;BME280;54614;47.576;7.524;2023-03-05T06:46:17;98621.91;;;22.22;31.16
67818;BME280;54614;47.576;7.524;2023-03-05T06:48:45;98635.31;;;22.22;31.40
67818;BME280;54614;47.576;7.524;2023-03-05T06:51:17;98630.16;;;22.20;31.36
67818;BME280;54614;47.576;7.524;2023-03-05T06:53:43;98635.50;;;22.20;31.41
67818;BME280;54614;47.576;7.524;2023-03-05T06:56:10;98632.19;;;22.18;31.72
67818;BME280;54614;47.576;7.524;2023-03-05T06:58:39;98632.63;;;22.22;31.64
67818;BME280;54614;47.576;7.524;2023-03-05T07:01:06;98624.78;;;22.20;31.72
67818;BME280;54614;47.576;7.524;2023-03-05T07:03:36;98630.75;;;22.15;31.71
67818;BME280;54614;47.576;7.524;2023-03-05T07:06:07;98621.53;;;22.25;31.38
67818;BME280;54614;47.576;7.524;2023-03-05T07:08:34;98624.41;;;22.23;31.26
67818;BME280;54614;47.576;7.524;2023-03-05T07:11:00;98621.53;;;22.25;31.14
67818;BME280;54614;47.576;7.524;2023-03-05T07:13:30;98624.59;;;22.22;30.97
67818;BME280;54614;47.576;7.524;2023-03-05T07:15:55;98619.44;;;22.20;31.18
67818;BME280;54614;47.576;7.524;2023-03-05T07:18:21;98618.81;;;22.18;31.06
67818;BME280;54614;47.576;7.524;2023-03-05T07:20:47;98621.47;;;22.18;31.35
67818;BME280;54614;47.576;7.524;2023-03-05T07:23:13;98613.00;;;22.14;31.19
67818;BME280;54614;47.576;7.524;2023-03-05T07:25:40;98612.81;;;22.16;31.20
67818;BME280;54614;47.576;7.524;2023-03-05T07:28:06;98619.00;;;22.16;31.01
67818;BME280;54614;47.576;7.524;2023-03-05T07:30:33;98610.97;;;22.16;31.15
67818;BME280;54614;47.576;7.524;2023-03-05T07:32:59;98612.81;;;22.16;31.09
67818;BME280;54614;47.576;7.524;2023-03-05T07:35:25;98623.53;;;22.16;31.01
67818;BME280;54614;47.576;7.524;2023-03-05T07:37:51;98617.34;;;22.15;31.12
67818;BME280;54614;47.576;7.524;2023-03-05T07:40:17;98622.13;;;22.20;31.08
67818;BME280;54614;47.576;7.524;2023-03-05T07:42:43;98620.47;;;22.19;31.02
67818;BME280;54614;47.576;7.524;2023-03-05T07:45:09;98615.09;;;22.19;31.21
67818;BME280;54614;47.576;7.524;2023-03-05T07:47:35;98612.81;;;22.16;31.21
67818;BME280;54614;47.576;7.524;2023-03-05T07:50:23;98616.31;;;22.16;31.23
67818;BME280;54614;47.576;7.524;2023-03-05T07:52:49;98611.16;;;22.15;31.42
67818;BME280;54614;47.576;7.524;2023-03-05T07:55:15;98613.06;;;22.21;31.10
67818;BME280;54614;47.576;7.524;2023-03-05T07:57:40;98611.88;;;22.30;31.43
67818;BME280;54614;47.576;7.524;2023-03-05T08:00:08;98611.88;;;22.30;31.35
67818;BME280;54614;47.576;7.524;2023-03-05T08:02:35;98601.16;;;22.30;30.94
67818;BME280;54614;47.576;7.524;2023-03-05T08:05:01;98606.97;;;22.34;31.11
67818;BME280;54614;47.576;7.524;2023-03-05T08:07:27;98606.75;;;22.35;31.07
67818;BME280;54614;47.576;7.524;2023-03-05T08:09:56;98604.72;;;22.37;31.02
67818;BME280;54614;47.576;7.524;2023-03-05T08:12:21;98594.00;;;22.37;31.11
67818;BME280;54614;47.576;7.524;2023-03-05T08:14:48;98598.13;;;22.40;31.04
67818;BME280;54614;47.576;7.524;2023-03-05T08:17:13;98599.78;;;22.41;30.90
67818;BME280;54614;47.576;7.524;2023-03-05T08:19:39;98593.41;;;22.42;31.03
67818;BME280;54614;47.576;7.524;2023-03-05T08:22:05;98590.53;;;22.43;31.04
67818;BME280;54614;47.576;7.524;2023-03-05T08:24:31;98592.19;;;22.44;30.61
67818;BME280;54614;47.576;7.524;2023-03-05T08:26:57;98590.97;;;22.47;30.70
67818;BME280;54614;47.576;7.524;2023-03-05T08:29:25;98582.72;;;22.48;30.70
67818;BME280;54614;47.576;7.524;2023-03-05T08:31:52;98582.53;;;22.50;30.64
67818;BME280;54614;47.576;7.524;2023-03-05T08:34:21;98570.56;;;22.52;30.65
67818;BME280;54614;47.576;7.524;2023-03-05T08:36:47;98575.75;;;22.54;30.53
67818;BME280;54614;47.576;7.524;2023-03-05T08:39:17;98572.47;;;22.59;30.53
67818;BME280;54614;47.576;7.524;2023-03-05T08:41:43;98573.91;;;22.61;30.71
67818;BME280;54614;47.576;7.524;2023-03-05T08:44:09;98577.44;;;22.62;30.50
67818;BME280;54614;47.576;7.524;2023-03-05T08:46:37;98575.38;;;22.64;30.48
67818;BME280;54614;47.576;7.524;2023-03-05T08:49:03;98570.84;;;22.64;30.27
67818;BME280;54614;47.576;7.524;2023-03-05T08:51:29;98574.78;;;22.68;30.55
67818;BME280;54614;47.576;7.524;2023-03-05T08:53:59;98572.31;;;22.73;30.60
67818;BME280;54614;47.576;7.524;2023-03-05T08:56:26;98561.81;;;22.72;30.33
67818;BME280;54614;47.576;7.524;2023-03-05T08:58:55;98562.44;;;22.74;30.47
67818;BME280;54614;47.576;7.524;2023-03-05T09:01:22;98558.31;;;22.78;30.21
67818;BME280;54614;47.576;7.524;2023-03-05T09:03:49;98552.94;;;22.78;30.30
67818;BME280;54614;47.576;7.524;2023-03-05T09:06:15;98550.94;;;22.80;29.91
67818;BME280;54614;47.576;7.524;2023-03-05T09:08:41;98544.53;;;22.81;30.64
67818;BME280;54614;47.576;7.524;2023-03-05T09:11:13;98549.69;;;22.82;30.59
67818;BME280;54614;47.576;7.524;2023-03-05T09:13:40;98547.25;;;22.88;29.78
67818;BME280;54614;47.576;7.524;2023-03-05T09:16:13;98543.97;;;22.92;29.83
67818;BME280;54614;47.576;7.524;2023-03-05T09:18:40;98544.19;;;22.97;29.79
67818;BME280;54614;47.576;7.524;2023-03-05T09:21:14;98538.81;;;22.97;29.96
67818;BME280;54614;47.576;7.524;2023-03-05T09:23:41;98535.72;;;23.00;30.31
67818;BME280;54614;47.576;7.524;2023-03-05T09:26:09;98533.03;;;23.00;30.08
67818;BME280;54614;47.576;7.524;2023-03-05T09:28:42;98536.56;;;23.01;30.18
67818;BME280;54614;47.576;7.524;2023-03-05T09:31:15;98529.75;;;23.05;30.19
67818;BME280;54614;47.576;7.524;2023-03-05T09:33:55;98527.69;;;23.07;30.22
67818;BME280;54614;47.576;7.524;2023-03-05T09:36:29;98527.72;;;23.13;30.37
67818;BME280;54614;47.576;7.524;2023-03-05T09:38:58;98519.66;;;23.13;30.62
67818;BME280;54614;47.576;7.524;2023-03-05T09:50:34;98498.00;;;23.28;30.21
67818;BME280;54614;47.576;7.524;2023-03-05T09:53:29;98499.03;;;23.34;30.43
67818;BME280;54614;47.576;7.524;2023-03-05T09:56:28;98499.47;;;23.37;30.46
67818;BME280;54614;47.576;7.524;2023-03-05T09:59:04;98496.56;;;23.39;30.23
67818;BME280;54614;47.576;7.524;2023-03-05T10:01:42;98489.75;;;23.43;30.05
67818;BME280;54614;47.576;7.524;2023-03-05T10:04:26;98485.84;;;23.45;30.04
67818;BME280;54614;47.576;7.524;2023-03-05T10:07:04;98486.03;;;23.51;29.87
67818;BME280;54614;47.576;7.524;2023-03-05T10:12:42;98490.00;;;23.55;29.82
67818;BME280;54614;47.576;7.524;2023-03-05T10:21:05;98483.56;;;23.69;40.94
67818;BME280;54614;47.576;7.524;2023-03-05T10:24:18;98473.03;;;23.74;35.21
67818;BME280;54614;47.576;7.524;2023-03-05T10:27:14;98475.09;;;23.78;33.15
67818;BME280;54614;47.576;7.524;2023-03-05T10:30:11;98474.25;;;23.85;32.74
67818;BME280;54614;47.576;7.524;2023-03-05T10:36:48;98468.44;;;23.94;31.72
67818;BME280;54614;47.576;7.524;2023-03-05T10:44:59;98459.16;;;23.97;30.82
67818;BME280;54614;47.576;7.524;2023-03-05T10:52:44;98447.41;;;23.85;30.93
67818;BME280;54614;47.576;7.524;2023-03-05T10:55:19;98441.41;;;23.83;30.48
67818;BME280;54614;47.576;7.524;2023-03-05T10:57:45;98444.91;;;23.83;31.56
67818;BME280;54614;47.576;7.524;2023-03-05T11:00:24;98437.22;;;24.00;33.19
67818;BME280;54614;47.576;7.524;2023-03-05T11:03:04;98434.53;;;24.06;31.98
67818;BME280;54614;47.576;7.524;2023-03-05T11:07:59;98425.16;;;24.22;31.19
67818;BME280;54614;47.576;7.524;2023-03-05T11:10:25;98433.25;;;24.16;30.80
67818;BME280;54614;47.576;7.524;2023-03-05T11:12:51;98427.09;;;24.02;30.88
67818;BME280;54614;47.576;7.524;2023-03-05T11:15:27;98428.56;;;23.98;30.74
67818;BME280;54614;47.576;7.524;2023-03-05T11:18:14;98426.28;;;23.95;30.96
67818;BME280;54614;47.576;7.524;2023-03-05T11:20:41;98421.31;;;23.98;31.04
67818;BME280;54614;47.576;7.524;2023-03-05T11:28:56;98404.59;;;23.96;31.04
67818;BME280;54614;47.576;7.524;2023-03-05T11:31:30;98398.59;;;23.94;30.88
67818;BME280;54614;47.576;7.524;2023-03-05T11:34:05;98402.72;;;23.97;31.04
67818;BME280;54614;47.576;7.524;2023-03-05T11:36:41;98392.59;;;23.99;31.04
67818;BME280;54614;47.576;7.524;2023-03-05T11:39:13;98401.28;;;24.01;31.18
67818;BME280;54614;47.576;7.524;2023-03-05T11:41:56;98390.31;;;24.02;30.96
67818;BME280;54614;47.576;7.524;2023-03-05T11:44:46;98384.31;;;24.00;31.22
67818;BME280;54614;47.576;7.524;2023-03-05T11:47:45;98382.25;;;24.02;30.86
67818;BME280;54614;47.576;7.524;2023-03-05T11:50:21;98383.06;;;24.03;30.87
67818;BME280;54614;47.576;7.524;2023-03-05T11:53:03;98369.63;;;24.03;31.03
67818;BME280;54614;47.576;7.524;2023-03-05T11:58:45;98363.22;;;24.04;30.66
67818;BME280;54614;47.576;7.524;2023-03-05T12:01:23;98361.59;;;24.03;30.85
67818;BME280;54614;47.576;7.524;2023-03-05T12:03:51;98360.72;;;24.09;31.05
67818;BME280;54614;47.576;7.524;2023-03-05T12:06:41;98350.19;;;24.07;30.52
67818;BME280;54614;47.576;7.524;2023-03-05T12:21:37;98315.81;;;24.23;30.38
67818;BME280;54614;47.576;7.524;2023-03-05T12:33:00;98292.03;;;24.26;30.55
67818;BME280;54614;47.576;7.524;2023-03-05T12:35:33;98287.88;;;24.30;30.39
67818;BME280;54614;47.576;7.524;2023-03-05T12:38:08;98289.53;;;24.31;30.38
67818;BME280;54614;47.576;7.524;2023-03-05T12:40:38;98286.84;;;24.31;30.30
67818;BME280;54614;47.576;7.524;2023-03-05T12:43:31;98283.09;;;24.32;30.14
67818;BME280;54614;47.576;7.524;2023-03-05T12:46:40;98271.53;;;24.32;30.24
67818;BME280;54614;47.576;7.524;2023-03-05T12:51:47;98258.31;;;24.30;29.83
67818;BME280;54614;47.576;7.524;2023-03-05T12:54:37;98256.44;;;24.31;29.84
67818;BME280;54614;47.576;7.524;2023-03-05T12:57:18;98250.69;;;24.27;30.25
67818;BME280;54614;47.576;7.524;2023-03-05T12:59:55;98248.19;;;24.26;29.49
67818;BME280;54614;47.576;7.524;2023-03-05T13:03:07;98248.41;;;24.24;29.47
67818;BME280;54614;47.576;7.524;2023-03-05T13:05:35;98244.06;;;24.23;29.83
67818;BME280;54614;47.576;7.524;2023-03-05T13:08:35;98241.81;;;24.20;29.79
67818;BME280;54614;47.576;7.524;2023-03-05T13:11:07;98244.50;;;24.20;29.77
67818;BME280;54614;47.576;7.524;2023-03-05T13:13:41;98245.16;;;24.16;29.59
67818;BME280;54614;47.576;7.524;2023-03-05T13:16:21;98241.84;;;24.14;29.55
67818;BME280;54614;47.576;7.524;2023-03-05T13:18:48;98234.00;;;24.12;29.57
67818;BME280;54614;47.576;7.524;2023-03-05T13:21:19;98238.34;;;24.13;29.66
67818;BME280;54614;47.576;7.524;2023-03-05T13:23:54;98240.22;;;24.13;29.88
67818;BME280;54614;47.576;7.524;2023-03-05T13:26:40;98229.47;;;24.13;29.54
67818;BME280;54614;47.576;7.524;2023-03-05T13:29:15;98235.66;;;24.13;29.79
67818;BME280;54614;47.576;7.524;2023-03-05T13:31:51;98228.41;;;24.14;29.64
67818;BME280;54614;47.576;7.524;2023-03-05T13:37:05;98222.66;;;24.10;29.30
67818;BME280;54614;47.576;7.524;2023-03-05T13:39:57;98218.72;;;24.13;29.45
67818;BME280;54614;47.576;7.524;2023-03-05T13:42:27;98217.06;;;24.11;29.38
67818;BME280;54614;47.576;7.524;2023-03-05T13:44:56;98210.03;;;24.10;29.46
67818;BME280;54614;47.576;7.524;2023-03-05T13:47:26;98224.91;;;24.13;29.20
67818;BME280;54614;47.576;7.524;2023-03-05T13:50:39;98216.25;;;24.11;29.37
67818;BME280;54614;47.576;7.524;2023-03-05T13:55:50;98213.16;;;24.07;29.46
67818;BME280;54614;47.576;7.524;2023-03-05T13:58:53;98208.63;;;24.08;28.95
67818;BME280;54614;47.576;7.524;2023-03-05T14:01:41;98208.81;;;24.06;29.16
67818;BME280;54614;47.576;7.524;2023-03-05T14:06:58;98204.72;;;24.04;29.24
67818;BME280;54614;47.576;7.524;2023-03-05T14:09:50;98200.16;;;24.04;29.12
67818;BME280;54614;47.576;7.524;2023-03-05T14:14:57;98206.78;;;24.02;29.16
67818;BME280;54614;47.576;7.524;2023-03-05T14:22:44;98200.81;;;24.00;28.95
67818;BME280;54614;47.576;7.524;2023-03-05T14:27:56;98196.47;;;23.99;28.92
67818;BME280;54614;47.576;7.524;2023-03-05T14:30:24;98189.47;;;23.98;29.20
67818;BME280;54614;47.576;7.524;2023-03-05T14:32:54;98184.09;;;23.98;29.02
67818;BME280;54614;47.576;7.524;2023-03-05T14:35:26;98178.72;;;23.98;28.82
67818;BME280;54614;47.576;7.524;2023-03-05T14:37:56;98173.56;;;23.96;28.86
67818;BME280;54614;47.576;7.524;2023-03-05T14:40:40;98177.91;;;23.97;28.94
67818;BME280;54614;47.576;7.524;2023-03-05T14:43:10;98176.47;;;23.95;29.13
67818;BME280;54614;47.576;7.524;2023-03-05T14:45:39;98169.44;;;23.94;29.01
67818;BME280;54614;47.576;7.524;2023-03-05T14:48:07;98170.28;;;23.94;28.72
67818;BME280;54614;47.576;7.524;2023-03-05T14:53:20;98167.19;;;23.91;28.65